Time;durP1;ratioP1;P1;durP2;ratioP2;P2;SDS_P1;SDS_P2;PMS_P1;PMS_P2;Temp;Humidity;BMP_temperature;BMP_pressure;BME280_temperature;BME280_humidity;BME280_pressure;Samples;Min_cycle;Max_cycle;Signal;HPM_P1;HPM_P2
2021/07/03 00:01:51;;;;;;;16.83;12.93;;;;;;;;;;5116776;27;20455;-72
2021/07/03 00:04:18;;;;;;;19.07;15.33;;;;;;;;;;5118579;27;20905;-73
2021/07/03 00:06:46;;;;;;;18.97;14.13;;;;;;;;;;5116647;27;20525;-73
2021/07/03 00:09:13;;;;;;;18.03;14.47;;;;;;;;;;5117171;27;20543;-72
2021/07/03 00:11:43;;;;;;;15.23;12.13;;;;;;;;;;5116653;27;20939;-74
2021/07/03 00:14:12;;;;;;;21.13;13.17;;;;;;;;;;5115611;27;20499;-73
2021/07/03 00:16:39;;;;;;;15.07;12.63;;;;;;;;;;5109218;27;20483;-72
2021/07/03 00:19:06;;;;;;;17.10;13.60;;;;;;;;;;5102189;28;20921;-72
2021/07/03 00:21:33;;;;;;;17.37;12.70;;;;;;;;;;5116251;28;20505;-72
2021/07/03 00:24:01;;;;;;;14.57;11.20;;;;;;;;;;5116423;28;20541;-72
2021/07/03 00:26:28;;;;;;;15.80;12.07;;;;;;;;;;5116350;28;20561;-72
2021/07/03 00:28:55;;;;;;;19.20;12.53;;;;;;;;;;5116687;28;20517;-72
2021/07/03 00:31:22;;;;;;;13.90;11.27;;;;;;;;;;5116143;28;20650;-71
2021/07/03 00:33:49;;;;;;;19.77;13.30;;;;;;;;;;5116079;28;20538;-72
2021/07/03 00:36:16;;;;;;;15.27;11.90;;;;;;;;;;5117536;27;20989;-72
2021/07/03 00:38:43;;;;;;;16.93;12.43;;;;;;;;;;5117743;27;20537;-71
2021/07/03 00:41:10;;;;;;;20.97;13.20;;;;;;;;;;5116522;27;20530;-72
2021/07/03 00:43:40;;;;;;;16.83;12.70;;;;;;;;;;5118088;27;20479;-71
2021/07/03 00:46:08;;;;;;;17.13;13.20;;;;;;;;;;5116730;27;20944;-72
2021/07/03 00:48:36;;;;;;;15.00;13.10;;;;;;;;;;5117947;27;20487;-72
2021/07/03 00:51:02;;;;;;;15.90;11.77;;;;;;;;;;5116811;27;20454;-72
2021/07/03 00:53:30;;;;;;;15.13;11.20;;;;;;;;;;5115423;28;20631;-72
2021/07/03 00:55:57;;;;;;;17.87;13.43;;;;;;;;;;5117737;27;20977;-72
2021/07/03 00:58:28;;;;;;;16.70;11.40;;;;;;;;;;5116452;27;20457;-72
2021/07/03 01:00:55;;;;;;;16.13;12.97;;;;;;;;;;5116426;27;20487;-72
2021/07/03 01:03:22;;;;;;;18.43;11.57;;;;;;;;;;5116805;27;20641;-72
2021/07/03 01:05:49;;;;;;;23.50;12.40;;;;;;;;;;5116359;27;20446;-71
2021/07/03 01:08:16;;;;;;;18.77;11.93;;;;;;;;;;5116843;27;20486;-72
2021/07/03 01:10:43;;;;;;;16.30;12.20;;;;;;;;;;5116064;27;20448;-71
2021/07/03 01:13:10;;;;;;;16.20;12.00;;;;;;;;;;5115811;27;20744;-71
2021/07/03 01:15:38;;;;;;;17.90;13.70;;;;;;;;;;5115904;27;20503;-71
2021/07/03 01:18:05;;;;;;;17.47;12.77;;;;;;;;;;5116812;27;20533;-73
2021/07/03 01:20:32;;;;;;;17.73;13.33;;;;;;;;;;5116481;27;20450;-73
2021/07/03 01:23:00;;;;;;;18.47;13.03;;;;;;;;;;5117547;27;20855;-73
2021/07/03 01:25:36;;;;;;;20.27;13.37;;;;;;;;;;5116249;27;20454;-73
2021/07/03 01:28:05;;;;;;;15.57;12.40;;;;;;;;;;5115238;27;20482;-73
2021/07/03 01:30:34;;;;;;;16.20;12.10;;;;;;;;;;5115975;27;20953;-72
2021/07/03 01:33:01;;;;;;;17.43;12.10;;;;;;;;;;5116948;27;20459;-72
2021/07/03 01:35:29;;;;;;;16.47;12.13;;;;;;;;;;5118107;27;20526;-72
2021/07/03 01:37:56;;;;;;;15.73;12.50;;;;;;;;;;5120010;27;20465;-72
2021/07/03 01:40:24;;;;;;;18.63;12.83;;;;;;;;;;5119561;27;20499;-72
2021/07/03 01:42:51;;;;;;;17.53;12.83;;;;;;;;;;5119226;28;20454;-72
2021/07/03 01:45:18;;;;;;;21.73;13.13;;;;;;;;;;5118839;28;20447;-72
2021/07/03 01:47:45;;;;;;;29.87;13.67;;;;;;;;;;5119454;28;20490;-72
2021/07/03 01:50:13;;;;;;;21.27;12.50;;;;;;;;;;5118663;28;20869;-72
2021/07/03 01:52:40;;;;;;;16.00;13.00;;;;;;;;;;5118947;28;20484;-72
2021/07/03 01:55:09;;;;;;;17.00;12.50;;;;;;;;;;5118846;28;20497;-72
2021/07/03 01:57:36;;;;;;;20.20;13.63;;;;;;;;;;5118594;28;20469;-72
2021/07/03 02:00:05;;;;;;;19.00;12.87;;;;;;;;;;5118509;28;20551;-72
2021/07/03 02:02:33;;;;;;;13.53;10.70;;;;;;;;;;5118489;28;20491;-72
2021/07/03 02:05:00;;;;;;;18.57;12.67;;;;;;;;;;5118944;28;20454;-72
2021/07/03 02:07:27;;;;;;;15.70;12.10;;;;;;;;;;5118783;28;20534;-72
2021/07/03 02:09:54;;;;;;;15.87;11.90;;;;;;;;;;5118267;28;20728;-72
2021/07/03 02:12:21;;;;;;;20.40;13.27;;;;;;;;;;5118522;28;20782;-72
2021/07/03 02:14:49;;;;;;;16.73;13.40;;;;;;;;;;5119192;28;20611;-72
2021/07/03 02:17:16;;;;;;;14.93;12.03;;;;;;;;;;5118354;28;20438;-72
2021/07/03 02:19:43;;;;;;;15.87;11.43;;;;;;;;;;5119150;27;20455;-72
2021/07/03 02:22:10;;;;;;;19.73;11.87;;;;;;;;;;5119008;27;20474;-73
2021/07/03 02:24:37;;;;;;;15.57;12.00;;;;;;;;;;5119141;27;20466;-73
2021/07/03 02:27:04;;;;;;;18.90;13.40;;;;;;;;;;5118957;27;20442;-72
2021/07/03 02:29:31;;;;;;;21.30;13.83;;;;;;;;;;5119075;27;20512;-72
2021/07/03 02:31:59;;;;;;;17.03;12.17;;;;;;;;;;5119017;27;20526;-72
2021/07/03 02:34:26;;;;;;;16.43;13.90;;;;;;;;;;5118958;27;20729;-72
2021/07/03 02:36:53;;;;;;;17.50;12.97;;;;;;;;;;5118872;27;20939;-71
2021/07/03 02:39:20;;;;;;;15.70;12.67;;;;;;;;;;5118409;27;20447;-72
2021/07/03 02:41:47;;;;;;;15.50;12.90;;;;;;;;;;5120272;27;20500;-72
2021/07/03 02:44:14;;;;;;;15.90;11.97;;;;;;;;;;5118726;27;20527;-72
2021/07/03 02:46:41;;;;;;;15.10;12.70;;;;;;;;;;5118445;27;20935;-72
2021/07/03 02:49:09;;;;;;;17.33;13.60;;;;;;;;;;5118572;27;20538;-72
2021/07/03 02:51:36;;;;;;;17.27;12.27;;;;;;;;;;5118553;27;20553;-72
2021/07/03 02:54:03;;;;;;;17.57;14.30;;;;;;;;;;5118773;27;20867;-72
2021/07/03 02:56:30;;;;;;;16.90;12.50;;;;;;;;;;5119075;27;20493;-73
2021/07/03 02:58:57;;;;;;;19.10;14.20;;;;;;;;;;5118240;27;20476;-72
2021/07/03 03:01:24;;;;;;;14.37;11.53;;;;;;;;;;5118227;27;20545;-72
2021/07/03 03:03:51;;;;;;;18.30;14.63;;;;;;;;;;5118109;27;20552;-73
2021/07/03 03:06:19;;;;;;;19.13;12.80;;;;;;;;;;5118559;27;20494;-72
2021/07/03 03:08:46;;;;;;;16.43;13.13;;;;;;;;;;5119888;27;20573;-72
2021/07/03 03:11:13;;;;;;;14.43;12.67;;;;;;;;;;5118550;27;20447;-72
2021/07/03 03:13:40;;;;;;;17.70;13.07;;;;;;;;;;5118581;27;20493;-72
2021/07/03 03:16:07;;;;;;;14.77;12.03;;;;;;;;;;5118503;27;20489;-72
2021/07/03 03:18:34;;;;;;;16.27;11.83;;;;;;;;;;5118504;27;20446;-72
2021/07/03 03:21:02;;;;;;;19.77;12.50;;;;;;;;;;5118045;27;20591;-72
2021/07/03 03:23:32;;;;;;;20.30;12.67;;;;;;;;;;5118590;27;21044;-72
2021/07/03 03:25:59;;;;;;;17.50;12.40;;;;;;;;;;5118888;27;20462;-72
2021/07/03 03:28:26;;;;;;;16.93;12.90;;;;;;;;;;5118467;27;20576;-72
2021/07/03 03:30:53;;;;;;;17.60;10.87;;;;;;;;;;5118636;27;20537;-72
2021/07/03 03:33:20;;;;;;;23.50;13.03;;;;;;;;;;5117882;27;20451;-72
2021/07/03 03:35:47;;;;;;;14.50;12.00;;;;;;;;;;5119163;27;20607;-72
2021/07/03 03:38:14;;;;;;;15.97;13.03;;;;;;;;;;5118008;27;20551;-72
2021/07/03 03:40:42;;;;;;;13.20;10.90;;;;;;;;;;5117491;27;20582;-72
2021/07/03 03:43:10;;;;;;;17.47;11.60;;;;;;;;;;5118164;27;20561;-72
2021/07/03 03:45:43;;;;;;;14.90;12.57;;;;;;;;;;5117826;27;20611;-72
2021/07/03 03:48:13;;;;;;;16.47;11.30;;;;;;;;;;5117935;27;20749;-72
2021/07/03 03:50:40;;;;;;;18.93;12.43;;;;;;;;;;5117651;27;20549;-72
2021/07/03 03:53:07;;;;;;;15.30;10.83;;;;;;;;;;5117922;27;20587;-72
2021/07/03 03:55:35;;;;;;;13.10;10.70;;;;;;;;;;5117646;27;20450;-72
2021/07/03 03:58:02;;;;;;;12.97;10.57;;;;;;;;;;5116294;27;20462;-72
2021/07/03 04:00:29;;;;;;;18.37;12.87;;;;;;;;;;5118663;27;20802;-72
2021/07/03 04:02:56;;;;;;;20.17;11.90;;;;;;;;;;5117202;27;20431;-72
2021/07/03 04:05:23;;;;;;;15.83;11.70;;;;;;;;;;5117679;27;20539;-72
2021/07/03 04:07:50;;;;;;;16.83;11.67;;;;;;;;;;5117809;27;20573;-72
2021/07/03 04:10:20;;;;;;;17.93;12.10;;;;;;;;;;5117990;27;20580;-72
2021/07/03 04:12:47;;;;;;;22.67;13.63;;;;;;;;;;5117874;27;20451;-72
2021/07/03 04:15:16;;;;;;;17.97;11.90;;;;;;;;;;5117515;27;20558;-72
2021/07/03 04:17:43;;;;;;;12.50;10.73;;;;;;;;;;5117441;27;20889;-72
2021/07/03 04:20:10;;;;;;;16.27;11.50;;;;;;;;;;5116925;27;20885;-72
2021/07/03 04:22:38;;;;;;;19.97;11.83;;;;;;;;;;5117133;27;20474;-72
2021/07/03 04:25:06;;;;;;;15.87;12.07;;;;;;;;;;5116781;27;20889;-72
2021/07/03 04:27:33;;;;;;;17.10;13.07;;;;;;;;;;5118531;27;20470;-72
2021/07/03 04:30:00;;;;;;;17.90;12.00;;;;;;;;;;5116742;27;20438;-72
2021/07/03 04:32:28;;;;;;;15.77;13.90;;;;;;;;;;5116760;27;21057;-72
2021/07/03 04:34:56;;;;;;;16.33;11.07;;;;;;;;;;5116973;27;20454;-73
2021/07/03 04:37:22;;;;;;;14.27;10.67;;;;;;;;;;5117209;27;20886;-72
2021/07/03 04:39:49;;;;;;;15.83;10.47;;;;;;;;;;5116118;27;20573;-72
2021/07/03 04:42:16;;;;;;;15.37;11.20;;;;;;;;;;5117083;27;20455;-72
2021/07/03 04:44:44;;;;;;;13.43;11.00;;;;;;;;;;5116447;27;20505;-72
2021/07/03 04:47:11;;;;;;;15.90;11.33;;;;;;;;;;5117184;27;20522;-72
2021/07/03 04:49:38;;;;;;;18.97;10.50;;;;;;;;;;5116968;27;20490;-72
2021/07/03 04:52:06;;;;;;;16.03;11.20;;;;;;;;;;5117167;27;20936;-72
2021/07/03 04:54:33;;;;;;;15.83;10.97;;;;;;;;;;5117347;27;20443;-72
2021/07/03 04:57:07;;;;;;;18.70;13.73;;;;;;;;;;5116503;27;20527;-73
2021/07/03 04:59:37;;;;;;;13.13;11.73;;;;;;;;;;5116675;27;20438;-73
2021/07/03 05:02:05;;;;;;;14.63;9.90;;;;;;;;;;5116418;27;20541;-73
2021/07/03 05:04:32;;;;;;;12.00;8.57;;;;;;;;;;5117131;27;20443;-73
2021/07/03 05:07:00;;;;;;;20.23;11.57;;;;;;;;;;5116228;27;20534;-72
2021/07/03 05:09:28;;;;;;;8.90;7.73;;;;;;;;;;5117379;27;20490;-73
2021/07/03 05:11:55;;;;;;;13.57;8.30;;;;;;;;;;5119907;27;20991;-73
2021/07/03 05:14:22;;;;;;;11.40;8.10;;;;;;;;;;5120060;27;20537;-73
2021/07/03 05:16:49;;;;;;;8.00;7.20;;;;;;;;;;5120131;27;20973;-73
2021/07/03 05:19:16;;;;;;;11.20;8.20;;;;;;;;;;5121230;27;20838;-73
2021/07/03 05:21:44;;;;;;;8.33;7.30;;;;;;;;;;5119326;27;20441;-73
2021/07/03 05:24:14;;;;;;;9.90;7.57;;;;;;;;;;5118240;28;20795;-74
2021/07/03 05:26:41;;;;;;;11.00;8.27;;;;;;;;;;5099161;28;20946;-73
2021/07/03 05:29:11;;;;;;;11.93;6.93;;;;;;;;;;5099208;28;20491;-73
2021/07/03 05:31:38;;;;;;;9.40;6.70;;;;;;;;;;5099162;28;20542;-73
2021/07/03 05:34:05;;;;;;;8.63;7.00;;;;;;;;;;5098943;28;20898;-73
2021/07/03 05:36:32;;;;;;;10.50;6.80;;;;;;;;;;5098569;28;20496;-73
2021/07/03 05:39:03;;;;;;;7.00;6.30;;;;;;;;;;5099036;28;20491;-74
2021/07/03 05:41:33;;;;;;;8.87;6.30;;;;;;;;;;5098489;28;20443;-74
2021/07/03 05:44:00;;;;;;;9.90;6.70;;;;;;;;;;5100040;28;20459;-73
2021/07/03 05:46:27;;;;;;;6.63;5.97;;;;;;;;;;5098649;28;20716;-73
2021/07/03 05:48:54;;;;;;;7.50;5.87;;;;;;;;;;5099184;28;20491;-73
2021/07/03 05:51:27;;;;;;;9.53;6.13;;;;;;;;;;5098993;28;20523;-73
2021/07/03 05:53:54;;;;;;;11.53;6.80;;;;;;;;;;5098795;28;21064;-72
2021/07/03 05:56:21;;;;;;;6.53;5.10;;;;;;;;;;5097983;28;20494;-73
2021/07/03 05:58:49;;;;;;;7.40;5.20;;;;;;;;;;5099124;28;20464;-73
2021/07/03 06:01:16;;;;;;;7.50;5.57;;;;;;;;;;5098859;28;20471;-73
2021/07/03 06:03:43;;;;;;;9.07;5.60;;;;;;;;;;5098896;28;20529;-72
2021/07/03 06:06:11;;;;;;;9.80;7.57;;;;;;;;;;5099026;28;20550;-72
2021/07/03 06:08:38;;;;;;;9.70;6.20;;;;;;;;;;5098706;28;20499;-72
2021/07/03 06:11:05;;;;;;;8.30;5.60;;;;;;;;;;5100544;27;20486;-72
2021/07/03 06:13:32;;;;;;;6.13;4.17;;;;;;;;;;5137340;27;20453;-72
2021/07/03 06:16:00;;;;;;;7.97;4.07;;;;;;;;;;5138908;27;20446;-72
2021/07/03 06:18:27;;;;;;;8.07;4.53;;;;;;;;;;5138423;27;20548;-72
2021/07/03 06:20:56;;;;;;;6.33;4.23;;;;;;;;;;5121887;27;20463;-72
2021/07/03 06:23:24;;;;;;;4.60;3.87;;;;;;;;;;5138993;27;20525;-72
2021/07/03 06:25:54;;;;;;;5.30;3.90;;;;;;;;;;5135949;27;20450;-71
2021/07/03 06:28:21;;;;;;;4.90;3.20;;;;;;;;;;5097624;28;20811;-71
2021/07/03 06:30:49;;;;;;;6.63;3.47;;;;;;;;;;5129451;27;20457;-72
2021/07/03 06:33:17;;;;;;;4.43;4.00;;;;;;;;;;5117444;27;20482;-72
2021/07/03 06:35:47;;;;;;;4.77;3.73;;;;;;;;;;5118090;27;20466;-72
2021/07/03 06:38:14;;;;;;;15.27;3.53;;;;;;;;;;5117017;27;20852;-72
2021/07/03 06:40:42;;;;;;;5.20;3.30;;;;;;;;;;5113029;27;20466;-72
2021/07/03 06:43:09;;;;;;;8.10;5.00;;;;;;;;;;5117230;27;20454;-72
2021/07/03 06:45:36;;;;;;;4.30;3.10;;;;;;;;;;5117325;27;20487;-72
2021/07/03 06:48:03;;;;;;;7.67;3.77;;;;;;;;;;5116054;27;20574;-72
2021/07/03 06:50:32;;;;;;;6.23;3.53;;;;;;;;;;5117794;27;20542;-72
2021/07/03 06:52:59;;;;;;;4.17;2.53;;;;;;;;;;5116074;27;20516;-72
2021/07/03 06:55:26;;;;;;;3.40;2.67;;;;;;;;;;5116592;27;20851;-72
2021/07/03 06:57:54;;;;;;;3.83;2.60;;;;;;;;;;5116875;27;20454;-72
2021/07/03 07:00:22;;;;;;;4.70;2.67;;;;;;;;;;5117608;27;20473;-72
2021/07/03 07:02:49;;;;;;;5.57;2.97;;;;;;;;;;5118048;27;20533;-72
2021/07/03 07:05:16;;;;;;;5.63;2.90;;;;;;;;;;5117640;27;20546;-72
2021/07/03 07:07:44;;;;;;;4.77;2.80;;;;;;;;;;5118270;27;20490;-72
2021/07/03 07:10:21;;;;;;;3.77;2.97;;;;;;;;;;5116292;27;20557;-72
2021/07/03 07:15:45;;;;;;;6.30;3.00;;;;;;;;;;5113943;27;20465;-73
2021/07/03 07:18:14;;;;;;;3.60;2.83;;;;;;;;;;5116605;27;20471;-72
2021/07/03 07:20:47;;;;;;;5.20;3.73;;;;;;;;;;5115733;27;20454;-72
2021/07/03 07:23:17;;;;;;;4.27;2.90;;;;;;;;;;5116116;27;20449;-71
2021/07/03 07:25:54;;;;;;;10.80;4.30;;;;;;;;;;5116200;27;20710;-70
2021/07/03 07:28:23;;;;;;;3.50;2.80;;;;;;;;;;5114176;28;20490;-71
2021/07/03 07:30:50;;;;;;;5.37;2.63;;;;;;;;;;5116501;27;20442;-71
2021/07/03 07:33:19;;;;;;;12.00;3.73;;;;;;;;;;5115544;27;20537;-70
2021/07/03 07:35:47;;;;;;;4.80;3.27;;;;;;;;;;5116369;27;20869;-71
2021/07/03 07:38:14;;;;;;;4.93;3.10;;;;;;;;;;5116164;27;20897;-71
2021/07/03 07:40:46;;;;;;;5.60;2.97;;;;;;;;;;5116092;27;20453;-72
2021/07/03 07:43:21;;;;;;;4.73;3.20;;;;;;;;;;5116039;27;20555;-73
2021/07/03 07:45:48;;;;;;;5.10;3.10;;;;;;;;;;5116280;27;20445;-71
2021/07/03 07:48:15;;;;;;;4.87;3.13;;;;;;;;;;5109494;27;20479;-72
2021/07/03 07:50:44;;;;;;;4.37;2.97;;;;;;;;;;5115192;28;20831;-72
2021/07/03 07:53:11;;;;;;;4.10;2.90;;;;;;;;;;5115021;28;20896;-71
2021/07/03 07:55:39;;;;;;;4.60;3.50;;;;;;;;;;5114890;28;20960;-71
2021/07/03 07:58:10;;;;;;;3.60;2.83;;;;;;;;;;5114400;27;20487;-70
2021/07/03 08:00:37;;;;;;;5.53;2.70;;;;;;;;;;5116601;27;20454;-71
2021/07/03 08:03:04;;;;;;;4.87;2.83;;;;;;;;;;5116165;27;20459;-71
2021/07/03 08:05:31;;;;;;;6.97;3.13;;;;;;;;;;5115664;27;21044;-70
2021/07/03 08:07:58;;;;;;;6.83;3.47;;;;;;;;;;5115112;27;20763;-70
2021/07/03 08:10:27;;;;;;;5.30;3.97;;;;;;;;;;5115204;27;20534;-70
2021/07/03 08:12:57;;;;;;;4.80;2.93;;;;;;;;;;5096714;28;20874;-71
2021/07/03 08:15:31;;;;;;;4.20;2.83;;;;;;;;;;5114781;28;20554;-71
2021/07/03 08:17:58;;;;;;;6.03;4.00;;;;;;;;;;5115929;27;20459;-73
2021/07/03 08:20:26;;;;;;;6.60;2.60;;;;;;;;;;5115683;27;20458;-71
2021/07/03 08:22:54;;;;;;;3.43;3.03;;;;;;;;;;5114881;27;20870;-70
2021/07/03 08:25:32;;;;;;;5.50;3.00;;;;;;;;;;5115671;27;20806;-71
2021/07/03 08:28:09;;;;;;;3.67;2.50;;;;;;;;;;5099835;27;20465;-72
2021/07/03 08:30:51;;;;;;;5.77;2.93;;;;;;;;;;5116767;27;20439;-71
2021/07/03 08:36:00;;;;;;;4.60;2.80;;;;;;;;;;5094623;28;20439;-69
2021/07/03 08:38:37;;;;;;;3.63;2.90;;;;;;;;;;5104219;28;20836;-71
2021/07/03 08:41:06;;;;;;;4.00;2.73;;;;;;;;;;5116012;27;20451;-69
2021/07/03 08:43:33;;;;;;;3.83;3.20;;;;;;;;;;5116220;27;20482;-70
2021/07/03 08:46:01;;;;;;;4.33;2.50;;;;;;;;;;5115562;27;20557;-71
2021/07/03 08:48:28;;;;;;;3.30;2.70;;;;;;;;;;5117877;27;20490;-70
2021/07/03 08:50:58;;;;;;;5.10;3.00;;;;;;;;;;5110827;27;20764;-71
2021/07/03 08:53:31;;;;;;;3.77;2.30;;;;;;;;;;5103717;28;20732;-71
2021/07/03 08:55:59;;;;;;;4.80;2.87;;;;;;;;;;5100691;27;20526;-71
2021/07/03 08:58:27;;;;;;;3.70;2.37;;;;;;;;;;5106551;27;20504;-72
2021/07/03 09:00:59;;;;;;;5.60;2.73;;;;;;;;;;5118348;27;20457;-69
2021/07/03 09:03:27;;;;;;;4.03;2.50;;;;;;;;;;5118546;27;20795;-69
2021/07/03 09:06:01;;;;;;;4.23;2.80;;;;;;;;;;5117194;27;20510;-70
2021/07/03 09:08:29;;;;;;;4.40;2.73;;;;;;;;;;5116645;27;20845;-70
2021/07/03 09:11:00;;;;;;;4.60;2.40;;;;;;;;;;5104792;28;20908;-70
2021/07/03 09:13:35;;;;;;;5.77;2.93;;;;;;;;;;5115334;27;20474;-71
2021/07/03 09:16:11;;;;;;;3.70;2.53;;;;;;;;;;5115362;27;20466;-70
2021/07/03 09:18:44;;;;;;;5.77;3.10;;;;;;;;;;5107032;28;20533;-70
2021/07/03 09:21:16;;;;;;;5.73;3.43;;;;;;;;;;5111198;27;20481;-71
2021/07/03 09:23:43;;;;;;;4.73;2.90;;;;;;;;;;5115702;27;20828;-72
2021/07/03 09:26:11;;;;;;;9.40;3.37;;;;;;;;;;5116543;27;20468;-71
2021/07/03 09:28:48;;;;;;;3.67;3.03;;;;;;;;;;5112855;27;20563;-72
2021/07/03 09:31:16;;;;;;;4.90;2.80;;;;;;;;;;5102473;27;20459;-71
2021/07/03 09:33:47;;;;;;;6.30;3.60;;;;;;;;;;5112779;27;20462;-70
2021/07/03 09:36:17;;;;;;;5.07;3.07;;;;;;;;;;5117464;27;20859;-70
2021/07/03 09:38:48;;;;;;;4.60;2.40;;;;;;;;;;5113570;27;20467;-70
2021/07/03 09:41:16;;;;;;;4.20;3.00;;;;;;;;;;5110176;27;20459;-70
2021/07/03 09:43:58;;;;;;;4.70;2.60;;;;;;;;;;5111622;27;20806;-72
2021/07/03 09:46:29;;;;;;;5.40;2.90;;;;;;;;;;5109647;28;20470;-72
2021/07/03 09:49:00;;;;;;;5.10;2.50;;;;;;;;;;5100939;28;20589;-70
2021/07/03 09:51:30;;;;;;;3.67;2.47;;;;;;;;;;5115795;27;20477;-72
2021/07/03 09:54:07;;;;;;;4.00;2.63;;;;;;;;;;5110118;27;20455;-71
2021/07/03 09:56:44;;;;;;;3.37;1.90;;;;;;;;;;5105585;27;20454;-71
2021/07/03 09:59:14;;;;;;;3.20;2.47;;;;;;;;;;5112562;27;20631;-71
2021/07/03 10:01:49;;;;;;;4.57;2.90;;;;;;;;;;5114593;27;20455;-71
2021/07/03 10:04:22;;;;;;;2.93;2.07;;;;;;;;;;5115612;27;20511;-70
2021/07/03 10:06:51;;;;;;;3.00;2.23;;;;;;;;;;5100881;28;20851;-69
2021/07/03 10:09:24;;;;;;;3.00;2.30;;;;;;;;;;5114037;27;20486;-70
2021/07/03 10:11:55;;;;;;;4.57;2.80;;;;;;;;;;5110323;27;20474;-70
2021/07/03 10:17:10;;;;;;;5.20;3.07;;;;;;;;;;5111062;27;20455;-70
2021/07/03 10:19:45;;;;;;;5.63;2.73;;;;;;;;;;5115374;28;20451;-69
2021/07/03 10:22:27;;;;;;;3.20;2.40;;;;;;;;;;5114057;27;21073;-69
2021/07/03 10:25:05;;;;;;;2.77;2.30;;;;;;;;;;5115896;28;20510;-69
2021/07/03 10:27:32;;;;;;;3.70;2.20;;;;;;;;;;5117396;27;20482;-70
2021/07/03 10:30:06;;;;;;;5.83;2.90;;;;;;;;;;5112298;28;21044;-68
2021/07/03 10:32:38;;;;;;;2.70;2.00;;;;;;;;;;5124066;27;20908;-70
2021/07/03 10:35:13;;;;;;;4.20;2.07;;;;;;;;;;5118224;27;20470;-70
2021/07/03 10:38:04;;;;;;;5.60;2.50;;;;;;;;;;5112728;27;20486;-70
2021/07/03 10:40:35;;;;;;;3.93;2.10;;;;;;;;;;5114608;27;20452;-71
2021/07/03 10:43:08;;;;;;;6.87;2.40;;;;;;;;;;5115276;27;20546;-71
2021/07/03 10:45:47;;;;;;;3.80;2.60;;;;;;;;;;5114391;28;20789;-71
2021/07/03 10:48:20;;;;;;;4.00;2.50;;;;;;;;;;5113863;27;20765;-70
2021/07/03 10:50:50;;;;;;;6.47;2.83;;;;;;;;;;5110615;27;21895;-70
2021/07/03 10:53:39;;;;;;;5.30;3.17;;;;;;;;;;5114067;27;20458;-70
2021/07/03 10:56:14;;;;;;;9.20;6.70;;;;;;;;;;5114537;27;20520;-71
2021/07/03 11:01:35;;;;;;;9.93;7.20;;;;;;;;;;5117253;27;20478;-70
2021/07/03 11:04:21;;;;;;;3.70;2.87;;;;;;;;;;5116326;27;20519;-72
2021/07/03 11:06:55;;;;;;;4.33;3.00;;;;;;;;;;5101869;28;20483;-71
2021/07/03 11:09:24;;;;;;;2.90;2.07;;;;;;;;;;5107166;27;20483;-71
2021/07/03 11:11:55;;;;;;;2.70;2.10;;;;;;;;;;5117220;27;20593;-71
2021/07/03 11:14:22;;;;;;;5.37;2.67;;;;;;;;;;5114417;27;20459;-71
2021/07/03 11:16:53;;;;;;;6.30;3.73;;;;;;;;;;5111060;27;20455;-70
2021/07/03 11:19:26;;;;;;;6.20;3.00;;;;;;;;;;5110278;27;20519;-71
2021/07/03 11:22:05;;;;;;;4.90;3.30;;;;;;;;;;5111691;27;20442;-71
2021/07/03 11:24:42;;;;;;;3.77;2.50;;;;;;;;;;5118961;28;20482;-70
2021/07/03 11:27:09;;;;;;;4.70;4.13;;;;;;;;;;5115416;27;20897;-70
2021/07/03 11:29:40;;;;;;;3.27;2.40;;;;;;;;;;5115550;27;20539;-71
2021/07/03 11:32:09;;;;;;;5.00;2.13;;;;;;;;;;5095754;28;21203;-71
2021/07/03 11:34:36;;;;;;;3.50;2.50;;;;;;;;;;5103060;28;20709;-71
2021/07/03 11:37:16;;;;;;;3.40;2.40;;;;;;;;;;5112278;27;20919;-71
2021/07/03 11:39:52;;;;;;;10.33;3.17;;;;;;;;;;5114377;27;20478;-70
2021/07/03 11:42:27;;;;;;;4.00;2.07;;;;;;;;;;5115000;27;20469;-70
2021/07/03 11:45:06;;;;;;;4.70;2.00;;;;;;;;;;5104682;27;20488;-72
2021/07/03 11:47:36;;;;;;;4.83;2.20;;;;;;;;;;5114918;27;20603;-71
2021/07/03 11:50:16;;;;;;;2.57;2.07;;;;;;;;;;5109056;27;20498;-71
2021/07/03 11:52:55;;;;;;;2.70;1.90;;;;;;;;;;5096869;28;20541;-70
2021/07/03 11:55:22;;;;;;;2.80;1.90;;;;;;;;;;5111555;27;21083;-72
2021/07/03 11:57:50;;;;;;;4.90;2.40;;;;;;;;;;5114180;27;20871;-71
2021/07/03 12:00:19;;;;;;;6.40;2.07;;;;;;;;;;5116446;27;20490;-71
2021/07/03 12:02:47;;;;;;;3.20;2.07;;;;;;;;;;5113622;27;20455;-71
2021/07/03 12:05:14;;;;;;;6.07;1.93;;;;;;;;;;5115697;27;20920;-71
2021/07/03 12:07:42;;;;;;;2.60;1.73;;;;;;;;;;5111805;27;20549;-71
2021/07/03 12:10:11;;;;;;;3.90;1.93;;;;;;;;;;5115123;27;20890;-71
2021/07/03 12:12:40;;;;;;;3.40;1.97;;;;;;;;;;5113664;27;20485;-71
2021/07/03 12:15:08;;;;;;;3.00;1.90;;;;;;;;;;5113796;28;20455;-70
2021/07/03 12:17:36;;;;;;;5.20;4.07;;;;;;;;;;5114927;27;20450;-71
2021/07/03 12:20:04;;;;;;;3.40;1.70;;;;;;;;;;5114280;27;20523;-70
2021/07/03 12:22:32;;;;;;;4.70;2.40;;;;;;;;;;5112877;27;20465;-71
2021/07/03 12:24:59;;;;;;;4.77;2.17;;;;;;;;;;5114929;27;20508;-71
2021/07/03 12:27:27;;;;;;;2.57;1.83;;;;;;;;;;5116743;27;20451;-70
2021/07/03 12:30:25;;;;;;;6.10;2.43;;;;;;;;;;5091910;28;20491;-69
2021/07/03 12:33:10;;;;;;;3.60;1.83;;;;;;;;;;5118647;27;20720;-70
2021/07/03 12:35:41;;;;;;;3.47;1.83;;;;;;;;;;5113102;28;20588;-70
2021/07/03 12:38:12;;;;;;;5.13;2.57;;;;;;;;;;5114588;27;20838;-71
2021/07/03 12:40:49;;;;;;;2.40;1.80;;;;;;;;;;5120068;27;20915;-70
2021/07/03 12:43:19;;;;;;;3.80;2.40;;;;;;;;;;5122071;27;20509;-70
2021/07/03 12:45:46;;;;;;;3.30;2.60;;;;;;;;;;5116037;27;20462;-70
2021/07/03 12:48:16;;;;;;;4.17;2.10;;;;;;;;;;5118312;27;20450;-70
2021/07/03 12:50:51;;;;;;;4.30;2.60;;;;;;;;;;5123963;27;20466;-70
2021/07/03 12:53:20;;;;;;;4.40;2.23;;;;;;;;;;5110850;27;20451;-70
2021/07/03 12:55:48;;;;;;;3.50;1.70;;;;;;;;;;5117972;27;20485;-70
2021/07/03 12:58:26;;;;;;;2.70;2.20;;;;;;;;;;5117569;27;20457;-70
2021/07/03 13:00:57;;;;;;;3.37;2.37;;;;;;;;;;5119519;28;20943;-70
2021/07/03 13:03:25;;;;;;;2.83;2.37;;;;;;;;;;5112175;27;20515;-70
2021/07/03 13:05:58;;;;;;;3.77;2.20;;;;;;;;;;5114063;27;20533;-70
2021/07/03 13:08:25;;;;;;;3.00;2.40;;;;;;;;;;5113651;27;20545;-70
2021/07/03 13:10:52;;;;;;;4.87;2.40;;;;;;;;;;5114128;28;20493;-70
2021/07/03 13:13:19;;;;;;;3.70;2.50;;;;;;;;;;5113357;27;20881;-70
2021/07/03 13:15:57;;;;;;;4.13;2.77;;;;;;;;;;5114176;27;20535;-71
2021/07/03 13:18:24;;;;;;;4.40;2.27;;;;;;;;;;5118210;27;20462;-70
2021/07/03 13:20:52;;;;;;;3.30;1.90;;;;;;;;;;5113232;27;20519;-71
2021/07/03 13:23:19;;;;;;;2.43;2.00;;;;;;;;;;5113429;27;20439;-71
2021/07/03 13:25:46;;;;;;;3.33;2.00;;;;;;;;;;5113100;27;20455;-70
2021/07/03 13:28:17;;;;;;;2.87;1.93;;;;;;;;;;5113593;27;20450;-69
2021/07/03 13:30:45;;;;;;;3.07;2.50;;;;;;;;;;5114871;27;20472;-70
2021/07/03 13:33:14;;;;;;;2.37;1.60;;;;;;;;;;5118032;27;20446;-69
2021/07/03 13:35:43;;;;;;;2.70;2.00;;;;;;;;;;5111985;27;20462;-70
2021/07/03 13:38:09;;;;;;;2.60;1.67;;;;;;;;;;5116832;27;20534;-69
2021/07/03 13:40:37;;;;;;;4.40;1.87;;;;;;;;;;5116838;27;20458;-69
2021/07/03 13:43:04;;;;;;;2.40;1.90;;;;;;;;;;5117494;27;20891;-70
2021/07/03 13:45:32;;;;;;;4.87;1.90;;;;;;;;;;5116686;27;20479;-70
2021/07/03 13:48:01;;;;;;;4.67;2.10;;;;;;;;;;5116864;27;20458;-70
2021/07/03 13:50:38;;;;;;;2.90;1.73;;;;;;;;;;5115014;27;20477;-70
2021/07/03 13:53:13;;;;;;;2.93;2.13;;;;;;;;;;5118044;27;20505;-71
2021/07/03 13:55:40;;;;;;;3.63;1.87;;;;;;;;;;5114931;27;20949;-70
2021/07/03 13:58:09;;;;;;;3.10;2.33;;;;;;;;;;5116240;27;20451;-70
2021/07/03 14:00:38;;;;;;;2.60;1.37;;;;;;;;;;5116525;27;20489;-71
2021/07/03 14:03:07;;;;;;;2.80;2.23;;;;;;;;;;5114216;27;21171;-70
2021/07/03 14:05:35;;;;;;;3.60;2.57;;;;;;;;;;5104846;28;20459;-70
2021/07/03 14:08:04;;;;;;;2.67;2.00;;;;;;;;;;5114673;27;20458;-70
2021/07/03 14:10:33;;;;;;;4.00;2.17;;;;;;;;;;5110375;27;20482;-69
2021/07/03 14:13:04;;;;;;;2.20;1.67;;;;;;;;;;5115243;27;20456;-69
2021/07/03 14:15:59;;;;;;;6.87;3.20;;;;;;;;;;5115342;27;20486;-69
2021/07/03 14:21:11;;;;;;;3.50;2.07;;;;;;;;;;5111954;27;20551;-69
2021/07/03 14:23:39;;;;;;;3.00;2.17;;;;;;;;;;5117199;27;20838;-69
2021/07/03 14:26:10;;;;;;;4.23;2.13;;;;;;;;;;5119780;27;20458;-69
2021/07/03 14:28:37;;;;;;;3.37;2.30;;;;;;;;;;5112652;27;20438;-70
2021/07/03 14:31:04;;;;;;;2.47;1.77;;;;;;;;;;5115324;27;20487;-70
2021/07/03 14:33:34;;;;;;;3.10;1.97;;;;;;;;;;5114680;27;20534;-69
2021/07/03 14:36:03;;;;;;;5.40;2.93;;;;;;;;;;5114973;28;20799;-69
2021/07/03 14:38:31;;;;;;;2.20;1.83;;;;;;;;;;5115285;27;20486;-70
2021/07/03 14:40:59;;;;;;;2.10;1.73;;;;;;;;;;5116096;27;20513;-69
2021/07/03 14:43:27;;;;;;;3.70;2.17;;;;;;;;;;5116426;27;20458;-70
2021/07/03 14:46:02;;;;;;;3.00;2.03;;;;;;;;;;5115526;27;20811;-70
2021/07/03 14:48:40;;;;;;;8.43;3.30;;;;;;;;;;5115041;27;20477;-70
2021/07/03 14:51:07;;;;;;;2.73;1.80;;;;;;;;;;5113900;28;20711;-70
2021/07/03 14:53:35;;;;;;;3.57;2.30;;;;;;;;;;5116134;27;20842;-70
2021/07/03 14:56:10;;;;;;;4.00;2.17;;;;;;;;;;5115433;27;20897;-70
2021/07/03 14:58:51;;;;;;;2.47;1.63;;;;;;;;;;5112321;27;20461;-70
2021/07/03 15:01:18;;;;;;;2.30;1.67;;;;;;;;;;5115529;27;20772;-69